.
WxDataArchive / Data Records for 2012-07-04
2012-07-03 July 2012 2012-07-05

Data Records for Wednesday, 04 July 2012

Time	Temp	Chill	HIndex	Humid	Dewpt	 Wind 	HiWind	WindDir	Rain 	Barom 
-----	----	-----	------	-----	-----	------	------	-------	-----	----- 
00:00	81.8	81.8	84.5	62	67.5	0	0	---	0.00	29.836 
00:05	81.6	81.6	84.4	63	67.8	0	0	---	0.00	29.836 
00:10	81.2	81.2	84.0	64	67.8	0	0	---	0.00	29.836 
00:15	81.1	81.1	83.8	64	67.7	0	0	---	0.00	29.836 
00:20	80.9	80.9	83.5	64	67.6	0	0	---	0.00	29.836 
00:25	80.7	80.7	83.4	65	67.8	0	0	---	0.00	29.836 
00:30	80.9	80.9	83.4	63	67.1	0	1	292	0.00	29.836 
00:35	81.1	81.1	83.6	63	67.3	0	0	---	0.00	29.836 
00:40	81.1	81.1	83.6	63	67.3	0	0	---	0.00	29.836 
00:45	81.1	81.1	83.6	63	67.3	0	0	---	0.00	29.836 
00:50	80.9	80.9	83.5	64	67.6	0	0	---	0.00	29.836 
00:55	80.7	80.7	83.2	64	67.4	0	0	---	0.00	29.836 
01:00	80.5	80.5	82.9	64	67.2	0	0	---	0.00	29.834 
01:05	80.3	80.3	82.8	65	67.4	0	0	---	0.00	29.834 
01:10	80.1	80.1	82.5	65	67.2	0	0	---	0.00	29.834 
01:15	79.9	79.9	82.2	65	67.1	0	0	---	0.00	29.835 
01:20	79.8	79.8	82.1	65	67.0	0	0	---	0.00	29.835 
01:25	79.8	79.8	82.1	65	67.0	0	0	---	0.00	29.835 
01:30	79.6	79.6	81.8	65	66.8	0	0	---	0.00	29.834 
01:35	79.4	79.4	81.6	65	66.6	0	0	---	0.00	29.834 
01:40	79.4	79.4	81.6	66	67.0	0	0	---	0.00	29.834 
01:45	79.2	79.2	81.4	66	66.8	0	0	---	0.00	29.832 
01:50	79.0	79.0	81.2	67	67.1	0	0	---	0.00	29.832 
01:55	79.0	79.0	81.2	67	67.1	0	0	---	0.00	29.832 
02:00	78.8	78.8	80.9	67	66.9	0	0	---	0.00	29.829 
02:05	78.8	78.8	80.9	67	66.9	0	0	---	0.00	29.829 
02:10	79.2	79.2	81.4	66	66.8	0	0	---	0.00	29.829 
02:15	79.2	79.2	81.4	66	66.8	0	0	---	0.00	29.831 
02:20	79.2	79.2	81.3	65	66.4	0	0	---	0.00	29.831 
02:25	79.2	79.2	81.3	65	66.4	0	0	---	0.00	29.831 
02:30	79.2	79.2	81.3	65	66.4	0	0	---	0.00	29.830 
02:35	79.0	79.0	81.0	65	66.2	0	0	---	0.00	29.830 
02:40	79.0	79.0	81.0	65	66.2	0	0	---	0.00	29.830 
02:45	78.8	78.8	80.9	66	66.5	0	0	---	0.00	29.831 
02:50	78.8	78.8	80.9	66	66.5	0	0	---	0.00	29.831 
02:55	78.6	78.6	80.6	66	66.3	0	0	---	0.00	29.831 
03:00	78.5	78.5	80.5	67	66.6	0	0	---	0.00	29.832 
03:05	78.5	78.5	80.5	67	66.6	0	0	---	0.00	29.832 
03:10	78.3	78.3	80.3	67	66.4	0	0	---	0.00	29.832 
03:15	78.3	78.3	80.3	68	66.8	0	0	---	0.00	29.830 
03:20	78.3	78.3	80.3	67	66.4	0	0	---	0.00	29.830 
03:25	78.5	78.5	80.5	67	66.6	0	0	---	0.00	29.830 
03:30	78.6	78.6	80.7	67	66.7	0	0	---	0.00	29.826 
03:35	78.6	78.6	80.7	67	66.7	0	0	---	0.00	29.826 
03:40	78.5	78.5	80.5	67	66.6	0	0	---	0.00	29.826 
03:45	78.5	78.5	80.6	68	67.0	0	1	292	0.00	29.824 
03:50	78.8	78.8	80.9	67	66.9	0	2	292	0.00	29.824 
03:55	79.2	79.2	81.5	67	67.3	0	1	292	0.00	29.824 
04:00	79.4	79.4	81.6	66	67.0	0	0	---	0.00	29.827 
04:05	79.4	79.4	81.7	67	67.5	0	0	---	0.00	29.827 
04:10	79.2	79.2	81.5	67	67.3	0	1	292	0.00	29.827 
04:15	79.2	79.2	81.5	67	67.3	0	1	292	0.00	29.832 
04:20	79.4	79.4	81.7	67	67.5	0	1	292	0.00	29.832 
04:25	79.4	79.4	81.7	67	67.5	0	1	292	0.00	29.832 
04:30	79.2	79.2	81.5	68	67.7	0	0	---	0.00	29.834 
04:35	79.2	79.2	81.5	68	67.7	0	0	---	0.00	29.834 
04:40	79.0	79.0	81.3	68	67.5	0	0	---	0.00	29.834 
04:45	79.0	79.0	81.3	69	67.9	0	0	---	0.00	29.834 
04:50	78.8	78.8	81.1	69	67.7	0	0	---	0.00	29.834 
04:55	78.6	78.6	80.8	69	67.6	0	0	---	0.00	29.834 
05:00	78.8	78.8	81.1	69	67.7	0	1	292	0.00	29.833 
05:05	78.8	78.8	81.1	69	67.7	0	1	292	0.00	29.833 
05:10	78.8	78.8	81.1	69	67.7	0	1	292	0.00	29.833 
05:15	78.8	78.8	81.1	69	67.7	0	2	292	0.00	29.838 
05:20	78.8	78.8	81.1	69	67.7	0	1	292	0.00	29.838 
05:25	78.8	78.8	81.1	69	67.7	0	1	292	0.00	29.838 
05:30	78.8	78.8	81.1	69	67.7	0	1	292	0.00	29.840 
05:35	78.8	78.8	81.1	70	68.2	0	1	292	0.00	29.840 
05:40	78.6	78.6	80.8	70	68.0	0	1	292	0.00	29.840 
05:45	78.5	78.5	80.8	71	68.3	0	1	292	0.00	29.844 
05:50	78.3	78.3	80.5	71	68.1	0	1	292	0.00	29.844 
05:55	78.3	78.3	80.5	71	68.1	0	1	292	0.00	29.844 
06:00	78.1	78.1	80.2	72	68.3	0	0	---	0.00	29.850 
06:05	77.9	77.9	79.9	72	68.1	0	0	---	0.00	29.850 
06:10	77.7	77.7	79.7	73	68.3	0	0	---	0.00	29.850 
06:15	77.6	77.6	79.5	73	68.2	0	1	292	0.00	29.856 
06:20	77.6	77.6	79.5	73	68.2	0	0	---	0.00	29.856 
06:25	77.4	77.4	79.3	74	68.4	0	1	292	0.00	29.856 
06:30	77.4	77.4	79.3	74	68.4	0	1	292	0.00	29.861 
06:35	77.4	77.4	79.3	74	68.4	0	0	---	0.00	29.861 
06:40	77.2	77.2	79.0	74	68.3	0	0	---	0.00	29.861 
06:45	77.2	77.2	79.0	75	68.6	0	1	292	0.00	29.859 
06:50	77.4	77.4	79.3	75	68.8	0	2	292	0.00	29.859 
06:55	77.6	77.6	79.6	74	68.6	0	1	292	0.00	29.859 
07:00	77.6	77.6	79.6	74	68.6	0	1	292	0.00	29.863 
07:05	77.7	77.7	79.7	74	68.7	0	1	292	0.00	29.863 
07:10	77.7	77.7	79.7	74	68.7	0	1	292	0.00	29.863 
07:15	77.9	77.9	80.0	74	68.9	0	2	292	0.00	29.864 
07:20	78.1	78.1	80.3	73	68.7	0	2	292	0.00	29.864 
07:25	78.5	78.5	80.9	73	69.1	1	2	292	0.00	29.864 
07:30	78.6	78.6	81.0	73	69.2	1	2	292	0.00	29.867 
07:35	79.0	79.0	81.6	72	69.2	0	2	292	0.00	29.867 
07:40	79.2	79.2	81.9	72	69.4	0	2	292	0.00	29.867 
07:45	79.6	79.6	82.5	72	69.8	0	2	292	0.00	29.869 
07:50	79.9	79.9	82.9	71	69.6	1	2	292	0.00	29.869 
07:55	80.3	80.3	83.4	70	69.6	1	3	292	0.00	29.869 
08:00	80.7	80.7	84.0	69	69.6	1	2	292	0.00	29.870 
08:05	81.2	81.2	84.6	68	69.6	0	2	292	0.00	29.870 
08:10	81.6	81.6	85.1	67	69.6	1	3	292	0.00	29.870 
08:15	82.0	82.0	85.6	66	69.5	1	2	338	0.00	29.874 
08:20	82.6	82.6	86.4	65	69.6	1	3	338	0.00	29.874 
08:25	83.2	83.2	87.5	65	70.2	1	3	338	0.00	29.874 
08:30	83.6	83.6	87.6	63	69.6	1	3	270	0.00	29.877 
08:35	84.0	84.0	88.1	62	69.5	1	2	270	0.00	29.877 
08:40	84.3	84.3	88.6	62	69.8	1	3	270	0.00	29.877 
08:45	84.5	84.5	88.7	61	69.5	1	3	270	0.00	29.880 
08:50	84.9	84.9	89.1	60	69.4	1	3	270	0.00	29.880 
08:55	85.3	85.3	89.8	60	69.8	1	3	270	0.00	29.880 
09:00	85.3	85.3	89.5	59	69.3	2	5	270	0.00	29.882 
09:05	85.5	85.5	89.8	59	69.5	2	4	292	0.00	29.882 
09:10	85.7	85.7	89.9	58	69.2	2	6	292	0.00	29.882 
09:15	85.9	85.9	90.2	58	69.4	2	5	315	0.00	29.883 
09:20	86.5	86.5	91.3	58	69.9	1	4	270	0.00	29.883 
09:25	87.0	87.0	91.5	56	69.4	2	4	270	0.00	29.883 
09:30	87.2	87.2	91.9	56	69.6	2	4	292	0.00	29.880 
09:35	87.4	87.4	91.9	55	69.2	2	5	270	0.00	29.880 
09:40	87.6	87.6	92.2	55	69.4	1	4	270	0.00	29.880 
09:45	88.2	88.2	92.9	54	69.4	1	4	270	0.00	29.877 
09:50	88.6	88.6	93.3	53	69.2	2	5	270	0.00	29.877 
09:55	88.8	88.8	93.2	52	68.9	3	5	270	0.00	29.877 
10:00	88.8	88.8	93.2	52	68.9	3	5	270	0.00	29.868 
10:05	89.3	89.3	93.7	51	68.8	3	6	270	0.00	29.868 
10:10	89.5	89.5	94.1	51	68.9	3	5	270	0.00	29.868 
10:15	89.7	89.7	94.0	50	68.5	2	4	270	0.00	29.865 
10:20	89.9	89.9	94.0	49	68.1	3	6	270	0.00	29.865 
10:25	89.9	89.9	94.4	50	68.7	3	9	315	0.00	29.865 
10:30	89.9	89.9	94.0	49	68.1	3	6	270	0.00	29.865 
10:35	90.1	90.1	93.9	48	67.7	4	8	270	0.00	29.865 
10:40	90.3	90.3	94.7	49	68.5	3	7	270	0.00	29.865 
10:45	90.7	90.7	95.0	48	68.3	3	7	270	0.00	29.865 
10:50	91.2	91.2	95.9	48	68.7	3	5	270	0.00	29.865 
10:55	91.4	91.4	95.8	47	68.3	3	5	270	0.00	29.865 
11:00	91.8	91.8	96.1	46	68.0	3	5	270	0.00	29.863 
11:05	92.1	92.1	96.7	46	68.3	2	5	270	0.00	29.863 
11:10	92.5	92.5	96.9	45	68.0	3	6	270	0.00	29.863 
11:15	92.7	92.7	97.3	45	68.2	2	4	292	0.00	29.865 
11:20	93.2	93.2	97.2	43	67.3	3	6	270	0.00	29.865 
11:25	93.2	93.2	97.7	44	68.0	3	6	270	0.00	29.865 
11:30	93.4	93.4	97.6	43	67.5	3	6	292	0.00	29.869 
11:35	93.6	93.6	98.5	44	68.4	2	6	270	0.00	29.869 
11:40	94.0	94.0	98.7	43	68.0	2	6	270	0.00	29.869 
11:45	94.0	94.0	98.7	43	68.0	3	5	270	0.00	29.867 
11:50	94.0	94.0	98.7	43	68.0	3	5	270	0.00	29.867 
11:55	94.5	94.5	99.1	42	67.8	2	5	270	0.00	29.867 
12:00	94.9	94.9	99.9	42	68.2	2	4	248	0.00	29.863 
12:05	95.1	95.1	99.7	41	67.6	2	5	248	0.00	29.863 
12:10	95.1	95.1	100.3	42	68.3	2	4	292	0.00	29.863 
12:15	95.6	95.6	101.3	42	68.8	2	4	270	0.00	29.859 
12:20	95.1	95.1	99.7	41	67.6	3	5	270	0.00	29.859 
12:25	95.4	95.4	100.3	41	67.9	2	4	315	0.00	29.859 
12:30	95.9	95.9	100.1	39	66.9	2	6	270	0.00	29.857 
12:35	95.9	95.9	100.1	39	66.9	3	7	270	0.00	29.857 
12:40	96.1	96.1	99.4	37	65.6	3	6	270	0.00	29.857 
12:45	95.6	95.6	99.0	38	65.9	3	7	315	0.00	29.854 
12:50	96.1	96.1	100.5	39	67.1	2	5	248	0.00	29.854 
12:55	96.8	96.8	100.7	37	66.2	2	5	248	0.00	29.854 
13:00	96.8	96.8	100.1	36	65.4	3	7	315	0.00	29.854 
13:05	97.1	97.1	100.1	35	64.8	3	6	270	0.00	29.854 
13:10	97.3	97.3	101.0	36	65.8	2	4	270	0.00	29.854 
13:15	97.5	97.5	100.2	34	64.3	3	7	270	0.00	29.853 
13:20	97.5	97.5	100.8	35	65.2	2	5	315	0.00	29.853 
13:25	97.5	97.5	100.8	35	65.2	2	5	315	0.00	29.853 
13:30	98.2	98.2	100.9	33	64.1	2	4	270	0.00	29.850 
13:35	98.7	98.7	103.0	35	66.2	2	4	248	0.00	29.850 
13:40	98.5	98.5	102.0	34	65.2	2	5	292	0.00	29.850 
13:45	98.2	98.2	100.9	33	64.1	3	5	292	0.00	29.850 
13:50	98.2	98.2	101.5	34	65.0	2	4	292	0.00	29.850 
13:55	98.7	98.7	101.8	33	64.5	2	3	315	0.00	29.850 
14:00	99.0	99.0	101.7	32	63.9	2	4	292	0.00	29.846 
14:05	99.0	99.0	101.7	32	63.9	3	6	270	0.00	29.846 
14:10	98.2	98.2	99.8	31	62.3	3	9	270	0.00	29.846 
14:15	98.0	98.0	99.5	31	62.1	3	6	270	0.00	29.847 
14:20	98.7	98.7	100.7	31	62.7	3	5	338	0.00	29.847 
14:25	98.7	98.7	101.2	32	63.7	3	5	270	0.00	29.847 
14:30	98.7	98.7	100.7	31	62.7	2	4	270	0.00	29.844 
14:35	98.7	98.7	100.7	31	62.7	2	5	270	0.00	29.844 
14:40	99.2	99.2	101.5	31	63.2	3	8	270	0.00	29.844 
14:45	98.7	98.7	100.7	31	62.7	2	4	270	0.00	29.841 
14:50	98.0	98.0	100.0	32	63.0	2	5	270	0.00	29.841 
14:55	98.2	98.2	100.4	32	63.2	3	6	270	0.00	29.841 
15:00	98.7	98.7	101.2	32	63.7	2	6	270	0.00	29.838 
15:05	98.0	98.0	99.5	31	62.1	2	4	270	0.00	29.838 
15:10	97.5	97.5	99.2	32	62.6	2	5	292	0.00	29.838 
15:15	98.0	98.0	99.5	31	62.1	2	5	270	0.00	29.837 
15:20	99.0	99.0	100.6	30	62.1	2	4	270	0.00	29.837 
15:25	99.4	99.4	101.3	30	62.4	2	6	270	0.00	29.837 
15:30	99.0	99.0	101.7	32	63.9	1	4	270	0.00	29.837 
15:35	98.7	98.7	100.7	31	62.7	3	6	270	0.00	29.837 
15:40	99.0	99.0	100.6	30	62.1	3	5	270	0.00	29.837 
15:45	99.0	99.0	100.6	30	62.1	2	5	270	0.00	29.833 
15:50	98.7	98.7	100.7	31	62.7	3	6	270	0.00	29.833 
15:55	99.2	99.2	100.4	29	61.3	3	5	315	0.00	29.833 
16:00	99.4	99.4	101.3	30	62.4	3	5	270	0.00	29.831 
16:05	99.9	99.9	102.1	30	62.8	3	5	270	0.00	29.831 
16:10	99.9	99.9	102.1	30	62.8	2	6	270	0.00	29.831 
16:15	100.2	100.2	102.7	30	63.1	2	6	270	0.00	29.829 
16:20	99.7	99.7	101.8	30	62.7	3	5	270	0.00	29.829 
16:25	99.2	99.2	100.4	29	61.3	2	5	292	0.00	29.829 
16:30	99.7	99.7	101.2	29	61.7	2	4	292	0.00	29.828 
16:35	100.2	100.2	102.7	30	63.1	2	5	270	0.00	29.828 
16:40	99.9	99.9	101.6	29	61.9	3	5	270	0.00	29.828 
16:45	99.4	99.4	101.3	30	62.4	2	5	270	0.00	29.826 
16:50	99.0	99.0	101.2	31	63.0	3	7	270	0.00	29.826 
16:55	99.2	99.2	100.9	30	62.2	3	5	270	0.00	29.826 
17:00	99.7	99.7	101.8	30	62.7	2	4	270	0.00	29.817 
17:05	99.7	99.7	101.8	30	62.7	3	6	270	0.00	29.817 
17:10	99.4	99.4	101.3	30	62.4	3	6	270	0.00	29.817 
17:15	98.7	98.7	101.2	32	63.7	2	5	270	0.00	29.818 
17:20	98.5	98.5	101.4	33	64.4	3	7	270	0.00	29.818 
17:25	98.2	98.2	101.5	34	65.0	1	3	248	0.00	29.818 
17:30	98.2	98.2	101.5	34	65.0	3	5	270	0.00	29.815 
17:35	98.5	98.5	102.6	35	66.1	2	4	338	0.00	29.815 
17:40	99.0	99.0	102.9	34	65.7	2	5	315	0.00	29.815 
17:45	99.0	99.0	102.9	34	65.7	2	5	315	0.00	29.814 
17:50	98.7	98.7	102.4	34	65.4	3	6	292	0.00	29.814 
17:55	98.7	98.7	102.4	34	65.4	2	4	270	0.00	29.814 
18:00	98.5	98.5	102.0	34	65.2	3	5	315	0.00	29.809 
18:05	98.0	98.0	101.7	35	65.6	2	5	315	0.00	29.809 
18:10	98.0	98.0	101.7	35	65.6	3	5	315	0.00	29.809 
18:15	98.0	98.0	101.1	34	64.8	2	4	270	0.00	29.802 
18:20	98.0	98.0	101.7	35	65.6	3	5	270	0.00	29.802 
18:25	97.5	97.5	100.2	34	64.3	4	9	315	0.00	29.802 
18:30	97.5	97.5	100.8	35	65.2	2	5	292	0.00	29.800 
18:35	97.8	97.8	100.8	34	64.6	3	6	292	0.00	29.800 
18:40	98.0	98.0	101.1	34	64.8	2	5	270	0.00	29.800 
18:45	98.2	98.2	101.5	34	65.0	2	4	270	0.00	29.800 
18:50	98.0	98.0	101.1	34	64.8	3	6	292	0.00	29.800 
18:55	97.8	97.8	100.2	33	63.8	3	5	270	0.00	29.800 
19:00	97.8	97.8	100.8	34	64.6	3	4	270	0.00	29.802 
19:05	97.5	97.5	99.7	33	63.5	3	6	292	0.00	29.802 
19:10	97.5	97.5	99.7	33	63.5	3	6	270	0.00	29.802 
19:15	97.5	97.5	99.2	32	62.6	3	6	270	0.00	29.805 
19:20	97.5	97.5	99.7	33	63.5	2	5	270	0.00	29.805 
19:25	97.3	97.3	99.9	34	64.2	2	5	270	0.00	29.805 
19:30	97.1	97.1	99.0	33	63.1	3	6	270	0.00	29.805 
19:35	97.1	97.1	99.0	33	63.1	2	4	270	0.00	29.805 
19:40	96.8	96.8	99.0	34	63.7	2	5	315	0.00	29.805 
19:45	96.6	96.6	98.7	34	63.6	2	4	270	0.00	29.804 
19:50	96.3	96.3	98.7	35	64.1	2	4	270	0.00	29.804 
19:55	96.3	96.3	98.7	35	64.1	1	3	270	0.00	29.804 
20:00	96.1	96.1	99.4	37	65.6	1	5	270	0.00	29.807 
20:05	96.1	96.1	99.4	37	65.6	1	2	270	0.00	29.807 
20:10	95.9	95.9	99.0	37	65.4	2	5	270	0.00	29.807 
20:15	95.6	95.6	98.5	37	65.1	2	4	292	0.00	29.813 
20:20	95.4	95.4	98.7	38	65.7	1	4	270	0.00	29.813 
20:25	95.1	95.1	98.6	39	66.2	2	4	270	0.00	29.813 
20:30	94.9	94.9	98.3	39	66.0	2	5	270	0.00	29.816 
20:35	94.7	94.7	97.9	39	65.8	2	4	292	0.00	29.816 
20:40	94.5	94.5	98.1	40	66.4	2	4	315	0.00	29.816 
20:45	94.3	94.3	98.2	41	66.9	1	3	315	0.00	29.825 
20:50	94.0	94.0	98.2	42	67.4	1	4	270	0.00	29.825 
20:55	93.8	93.8	97.8	42	67.2	1	2	270	0.00	29.825 
21:00	93.6	93.6	97.4	42	67.0	1	3	270	0.00	29.829 
21:05	93.4	93.4	97.1	42	66.8	2	4	270	0.00	29.829 
21:10	93.2	93.2	96.7	42	66.6	1	2	270	0.00	29.829 
21:15	92.9	92.9	96.2	42	66.4	1	2	270	0.00	29.828 
21:20	92.7	92.7	95.8	42	66.2	1	3	270	0.00	29.828 
21:25	92.5	92.5	95.5	42	66.0	1	2	270	0.00	29.828 
21:30	92.3	92.3	95.1	42	65.8	0	2	270	0.00	29.830 
21:35	92.3	92.3	95.6	43	66.5	0	1	270	0.00	29.830 
21:40	91.8	91.8	94.7	43	66.1	0	1	270	0.00	29.830 
21:45	91.6	91.6	94.4	43	65.9	0	1	270	0.00	29.827 
21:50	91.4	91.4	94.5	44	66.4	0	1	270	0.00	29.827 
21:55	91.2	91.2	94.1	44	66.2	0	1	270	0.00	29.827 
22:00	91.0	91.0	94.2	45	66.7	0	1	270	0.00	29.827 
22:05	90.7	90.7	93.7	45	66.4	0	1	270	0.00	29.827 
22:10	90.5	90.5	93.8	46	66.8	0	0	---	0.00	29.827 
22:15	90.3	90.3	93.4	46	66.7	0	1	270	0.00	29.827 
22:20	90.1	90.1	93.5	47	67.1	0	1	270	0.00	29.827 
22:25	89.9	89.9	93.1	47	66.9	0	1	270	0.00	29.827 
22:30	89.7	89.7	93.2	48	67.4	0	1	270	0.00	29.826 
22:35	89.5	89.5	92.8	48	67.2	0	0	---	0.00	29.826 
22:40	89.0	89.0	92.4	49	67.3	0	0	---	0.00	29.826 
22:45	88.8	88.8	92.4	50	67.7	0	0	---	0.00	29.827 
22:50	88.6	88.6	92.1	50	67.5	0	0	---	0.00	29.827 
22:55	88.4	88.4	92.1	51	67.9	0	1	270	0.00	29.827 
23:00	88.2	88.2	91.8	51	67.7	0	1	270	0.00	29.829 
23:05	88.2	88.2	91.8	51	67.7	0	1	270	0.00	29.829 
23:10	88.0	88.0	91.8	52	68.1	0	0	---	0.00	29.829 
23:15	87.8	87.8	91.8	53	68.5	0	0	---	0.00	29.831 
23:20	87.6	87.6	91.8	54	68.9	0	0	---	0.00	29.831 
23:25	87.4	87.4	91.5	54	68.7	0	0	---	0.00	29.831 
23:30	87.2	87.2	91.5	55	69.0	0	0	---	0.00	29.843 
23:35	87.0	87.0	91.5	56	69.4	0	0	---	0.00	29.843 
23:40	86.5	86.5	91.0	57	69.4	0	0	---	0.00	29.843 
23:45	86.3	86.3	90.9	58	69.7	0	1	270	0.00	29.846 
23:50	86.5	86.5	91.0	57	69.4	0	1	270	0.00	29.846 
23:55	86.5	86.5	91.3	58	69.9	0	0	---	0.00	29.846 

CoCoRaHS
IN-AL-39
A2 Web Hosting
Creative Commons License
GoDaddy
search engine by freefind advanced

loaded 2018-11-12 19:14:16 • last modified 2010-11-18 10:43:29
Privacy PolicyDisclaimer
• wx.awcolley.com is powered by PmWiki v.2002016 •
• all content (unless otherwise noted) © 2018 A W Colley